Time;durP1;ratioP1;P1;durP2;ratioP2;P2;SDS_P1;SDS_P2;PMS_P1;PMS_P2;Temp;Humidity;BMP_temperature;BMP_pressure;BME280_temperature;BME280_humidity;BME280_pressure;Samples;Min_cycle;Max_cycle;Signal;HPM_P1;HPM_P2
2022/11/11 00:01:32;;;;;;;3.97;1.10;;;25.70;99.90;;;;;;5068071;28;20245;-71
2022/11/11 00:04:00;;;;;;;4.20;1.00;;;25.50;99.90;;;;;;5067693;28;20186;-69
2022/11/11 00:06:27;;;;;;;4.03;0.67;;;25.90;99.90;;;;;;5070564;28;20247;-70
2022/11/11 00:08:55;;;;;;;6.10;1.03;;;26.30;99.90;;;;;;5071800;28;20186;-67
2022/11/11 00:11:22;;;;;;;5.97;0.93;;;26.00;99.90;;;;;;5071548;28;20184;-68
2022/11/11 00:13:49;;;;;;;2.63;1.00;;;26.40;99.90;;;;;;5071848;28;20211;-67
2022/11/11 00:16:19;;;;;;;3.63;0.93;;;27.20;99.90;;;;;;5072088;28;20172;-69
2022/11/11 00:27:12;;;;;;;3.63;1.17;;;28.00;95.70;;;;;;5072208;28;20202;-66
2022/11/11 00:29:39;;;;;;;1.73;0.90;;;27.30;99.90;;;;;;5071534;28;20276;-70
2022/11/11 00:32:25;;;;;;;2.43;1.00;;;27.80;99.90;;;;;;5071481;28;20650;-67
2022/11/11 00:37:41;;;;;;;2.73;0.93;;;27.90;99.90;;;;;;5071998;28;20241;-67
2022/11/11 00:40:10;;;;;;;2.73;0.90;;;28.20;98.40;;;;;;5071485;28;20184;-68
2022/11/11 00:42:38;;;;;;;2.13;0.73;;;28.70;97.90;;;;;;5070225;28;20667;-68
2022/11/11 00:45:06;;;;;;;3.60;0.90;;;28.90;92.90;;;;;;5040489;28;20184;-68
2022/11/11 00:53:22;;;;;;;1.23;0.80;;;29.30;90.60;;;;;;5069281;28;20693;-67
2022/11/11 00:55:50;;;;;;;1.70;0.70;;;29.00;94.40;;;;;;5075483;28;20183;-68
2022/11/11 00:58:17;;;;;;;4.17;0.70;;;28.40;92.30;;;;;;5075137;28;20520;-69
2022/11/11 01:00:45;;;;;;;2.77;0.90;;;28.30;94.20;;;;;;5047351;28;20188;-66
2022/11/11 01:03:12;;;;;;;4.30;0.90;;;28.70;92.60;;;;;;5065214;28;20200;-72
2022/11/11 01:05:40;;;;;;;2.20;1.00;;;28.80;93.70;;;;;;5054902;28;20192;-79
2022/11/11 01:08:08;;;;;;;3.10;1.00;;;28.90;91.10;;;;;;5048334;28;20196;-78
2022/11/11 01:10:43;;;;;;;4.63;0.90;;;28.80;96.50;;;;;;5056648;28;20183;-78
2022/11/11 01:13:17;;;;;;;4.60;1.00;;;29.10;93.00;;;;;;5090307;28;20361;-76
2022/11/11 01:15:48;;;;;;;1.83;0.80;;;28.20;93.10;;;;;;5073350;28;20268;-77
2022/11/11 01:18:18;;;;;;;3.47;0.80;;;28.10;94.70;;;;;;5075267;28;20623;-77
2022/11/11 01:20:46;;;;;;;3.60;0.70;;;28.90;88.40;;;;;;5074774;28;20179;-72
2022/11/11 01:23:14;;;;;;;6.97;1.33;;;29.30;91.50;;;;;;5074710;28;20204;-77
2022/11/11 01:25:42;;;;;;;2.80;1.00;;;29.30;87.60;;;;;;5074373;28;20186;-77
2022/11/11 01:28:10;;;;;;;3.07;0.80;;;28.90;91.10;;;;;;5074607;28;20199;-75
2022/11/11 01:30:37;;;;;;;3.23;0.63;;;29.50;89.50;;;;;;5074261;28;20514;-75
2022/11/11 01:33:05;;;;;;;3.30;0.90;;;30.00;84.50;;;;;;5072797;28;20728;-77
2022/11/11 01:35:37;;;;;;;1.43;0.70;;;29.30;88.80;;;;;;5089765;28;20265;-71
2022/11/11 01:38:04;;;;;;;7.07;0.80;;;28.90;84.80;;;;;;5074763;28;20183;-73
2022/11/11 01:40:39;;;;;;;1.20;0.80;;;28.50;93.40;;;;;;5061484;28;20192;-77
2022/11/11 01:43:06;;;;;;;2.83;0.87;;;28.30;90.30;;;;;;5074419;28;20190;-75
2022/11/11 01:45:54;;;;;;;1.13;0.57;;;28.00;92.90;;;;;;5065784;28;20264;-76
2022/11/11 01:51:47;;;;;;;4.63;0.93;;;27.90;92.30;;;;;;5051535;28;20630;-76
2022/11/11 01:54:39;;;;;;;4.77;1.10;;;28.30;90.10;;;;;;5054608;28;20269;-77
2022/11/11 01:57:36;;;;;;;2.17;0.80;;;28.50;93.50;;;;;;5034208;28;20654;-75
2022/11/11 02:00:10;;;;;;;6.37;0.87;;;28.10;93.20;;;;;;5026055;28;20662;-77
2022/11/11 02:02:54;;;;;;;1.90;0.60;;;28.60;92.40;;;;;;5034497;28;20224;-78
2022/11/11 02:05:42;;;;;;;2.53;0.90;;;28.80;94.30;;;;;;5045557;28;20268;-73
2022/11/11 02:08:32;;;;;;;2.93;1.00;;;29.00;91.50;;;;;;5052703;28;20623;-76
2022/11/11 02:16:54;;;;;;;3.80;0.90;;;28.80;90.30;;;;;;5033945;28;20272;-72
2022/11/11 02:19:33;;;;;;;1.93;0.53;;;28.90;92.10;;;;;;5050310;28;20247;-73
2022/11/11 02:22:02;;;;;;;4.30;0.77;;;28.50;91.40;;;;;;5053709;28;20183;-70
2022/11/11 02:24:31;;;;;;;4.97;0.70;;;28.50;90.50;;;;;;5053843;28;20610;-76
2022/11/11 02:27:01;;;;;;;1.10;0.73;;;28.90;93.50;;;;;;5054423;28;20172;-75
2022/11/11 02:29:30;;;;;;;4.67;1.00;;;29.10;92.00;;;;;;5054202;28;20195;-76
2022/11/11 02:31:57;;;;;;;3.53;0.80;;;29.10;88.80;;;;;;5053979;28;20177;-78
2022/11/11 02:34:32;;;;;;;6.13;0.90;;;29.20;90.00;;;;;;5054427;28;20330;-74
2022/11/11 02:37:02;;;;;;;3.60;0.97;;;29.30;93.80;;;;;;5054513;28;20183;-71
2022/11/11 02:39:31;;;;;;;1.97;0.70;;;29.10;86.90;;;;;;5052748;28;20192;-74
2022/11/11 02:41:58;;;;;;;4.73;0.67;;;29.30;86.00;;;;;;5053732;28;20180;-74
2022/11/11 02:44:27;;;;;;;1.80;0.70;;;29.20;79.70;;;;;;5053559;28;20256;-75
2022/11/11 02:46:54;;;;;;;3.50;1.10;;;29.20;80.20;;;;;;5052288;28;20271;-71
2022/11/11 02:49:21;;;;;;;4.53;0.90;;;29.30;81.70;;;;;;5055112;28;20263;-78
2022/11/11 02:51:49;;;;;;;3.13;1.23;;;29.20;76.80;;;;;;5055538;28;20255;-78
2022/11/11 02:54:16;;;;;;;5.93;1.00;;;29.20;79.10;;;;;;5055210;28;20287;-78
2022/11/11 02:59:29;;;;;;;1.97;0.70;;;29.30;74.20;;;;;;5067067;28;20191;-79
2022/11/11 03:01:57;;;;;;;5.27;0.80;;;29.30;75.40;;;;;;5073659;28;20216;-76
2022/11/11 03:04:25;;;;;;;3.13;0.80;;;29.00;75.50;;;;;;5073639;28;20194;-78
2022/11/11 03:06:52;;;;;;;4.53;0.93;;;28.90;77.10;;;;;;5073753;28;20184;-78
2022/11/11 03:09:19;;;;;;;1.43;0.80;;;28.90;79.70;;;;;;5073386;28;20198;-78
2022/11/11 03:11:47;;;;;;;3.80;0.80;;;28.40;79.30;;;;;;5073275;28;20179;-77
2022/11/11 03:14:14;;;;;;;2.87;0.67;;;28.20;86.50;;;;;;5073120;28;20215;-78
2022/11/11 03:19:27;;;;;;;3.73;0.87;;;27.80;88.80;;;;;;5073339;28;20711;-78
2022/11/11 03:21:55;;;;;;;2.40;0.77;;;27.80;90.10;;;;;;5073025;28;20172;-78
2022/11/11 03:24:22;;;;;;;2.60;0.80;;;27.60;92.40;;;;;;5072753;28;20178;-79
2022/11/11 03:26:50;;;;;;;1.40;0.80;;;27.60;93.30;;;;;;5072773;28;20184;-78
2022/11/11 03:29:17;;;;;;;1.37;0.70;;;27.40;92.60;;;;;;5072580;28;20242;-76
2022/11/11 03:31:44;;;;;;;5.10;1.00;;;27.20;94.40;;;;;;5072772;28;20669;-78
2022/11/11 03:34:18;;;;;;;6.63;0.90;;;27.20;95.90;;;;;;5072608;28;20669;-77
2022/11/11 03:39:31;;;;;;;2.43;0.80;;;27.00;97.40;;;;;;5072685;28;20238;-78
2022/11/11 03:41:58;;;;;;;10.43;0.90;;;27.10;98.00;;;;;;5072433;28;20188;-79
2022/11/11 03:44:27;;;;;;;6.77;0.80;;;26.60;98.70;;;;;;5072287;28;20180;-75
2022/11/11 03:46:55;;;;;;;2.20;0.70;;;26.30;99.90;;;;;;5071958;28;20239;-78
2022/11/11 03:49:23;;;;;;;4.47;0.80;;;26.10;99.90;;;;;;5071983;28;20559;-79
2022/11/11 03:51:50;;;;;;;4.27;1.07;;;26.00;99.90;;;;;;5072276;28;20281;-79
2022/11/11 03:54:18;;;;;;;3.27;1.10;;;25.80;99.90;;;;;;5072295;28;20243;-77
2022/11/11 03:56:45;;;;;;;4.60;1.03;;;25.60;99.90;;;;;;5087548;28;20580;-80
2022/11/11 03:59:12;;;;;;;4.47;0.90;;;25.10;99.90;;;;;;5072072;28;20198;-75
2022/11/11 04:18:13;;;;;;;3.87;1.27;;;23.70;99.90;;;;;;5071879;28;20190;-78
2022/11/11 04:23:28;;;;;;;1.53;1.00;;;24.30;99.90;;;;;;5071909;28;20601;-78
2022/11/11 04:25:59;;;;;;;3.77;1.13;;;24.60;99.90;;;;;;5071600;28;20230;-75
2022/11/11 04:31:12;;;;;;;3.87;1.30;;;25.00;99.90;;;;;;5075069;28;20186;-78
2022/11/11 04:33:39;;;;;;;1.93;0.63;;;25.20;99.90;;;;;;5071677;28;20704;-78
2022/11/11 04:36:07;;;;;;;8.37;0.80;;;25.30;99.90;;;;;;5062065;28;20181;-77
2022/11/11 04:41:19;;;;;;;1.97;0.97;;;25.30;99.90;;;;;;5071614;28;20829;-76
2022/11/11 04:46:32;;;;;;;4.03;1.30;;;25.20;99.90;;;;;;5071522;28;20203;-79
2022/11/11 04:48:59;;;;;;;3.47;0.90;;;25.20;99.90;;;;;;5087526;28;20186;-79
2022/11/11 04:52:25;;;;;;;2.10;0.70;;;25.10;99.90;;;;;;5071645;28;20194;-77
2022/11/11 04:54:13;;;;;;;4.77;1.27;;;24.80;99.90;;;;;;5071678;28;20227;-77
2022/11/11 04:56:48;;;;;;;3.97;1.10;;;24.80;99.90;;;;;;5065794;28;20203;-72
2022/11/11 04:59:17;;;;;;;6.37;1.53;;;24.80;99.90;;;;;;5072089;28;20221;-72
2022/11/11 05:04:30;;;;;;;5.60;1.40;;;24.80;99.90;;;;;;5058020;28;20191;-76
2022/11/11 05:09:56;;;;;;;5.73;1.00;;;25.00;99.90;;;;;;5050324;28;20232;-74
2022/11/11 05:12:24;;;;;;;1.30;0.80;;;24.80;99.90;;;;;;5050593;28;20230;-75
2022/11/11 05:25:24;;;;;;;4.77;1.13;;;24.40;99.90;;;;;;5067397;28;20269;-74
2022/11/11 05:26:14;;;;;;;5.33;1.50;;;24.30;99.90;;;;;;5070674;28;20256;-77
2022/11/11 05:28:42;;;;;;;6.43;1.30;;;24.30;99.90;;;;;;5071198;28;20233;-73
2022/11/11 05:31:09;;;;;;;5.40;1.80;;;24.20;99.90;;;;;;5071083;28;20256;-72
2022/11/11 05:33:36;;;;;;;6.83;1.63;;;24.20;99.90;;;;;;5070825;28;20215;-80
2022/11/11 05:36:04;;;;;;;4.10;1.40;;;24.30;99.90;;;;;;5066760;28;20198;-76
2022/11/11 05:38:31;;;;;;;4.97;1.33;;;24.20;99.90;;;;;;5051182;28;20184;-75
2022/11/11 05:40:59;;;;;;;4.80;1.83;;;24.10;99.90;;;;;;5058232;28;20184;-77
2022/11/11 05:43:26;;;;;;;6.87;1.70;;;24.10;99.90;;;;;;5090239;28;20640;-77
2022/11/11 05:45:54;;;;;;;5.90;1.40;;;24.20;99.90;;;;;;5074547;28;20179;-78
2022/11/11 05:48:21;;;;;;;3.37;1.07;;;24.10;99.90;;;;;;5073412;28;20184;-78
2022/11/11 05:50:49;;;;;;;2.50;1.33;;;24.20;99.90;;;;;;5072633;28;20853;-75
2022/11/11 05:53:22;;;;;;;1.37;0.80;;;24.30;99.90;;;;;;5067267;28;20217;-77
2022/11/11 05:55:53;;;;;;;3.53;0.80;;;24.30;99.90;;;;;;5074626;28;20195;-77
2022/11/11 05:58:21;;;;;;;2.70;1.20;;;24.40;99.90;;;;;;5074409;28;20176;-76
2022/11/11 06:00:48;;;;;;;2.47;1.43;;;24.40;99.90;;;;;;5074240;28;20176;-74
2022/11/11 06:03:16;;;;;;;4.43;1.40;;;24.50;99.90;;;;;;5074109;28;20184;-75
2022/11/11 06:05:43;;;;;;;3.33;1.67;;;24.40;99.90;;;;;;5074261;28;20177;-75
2022/11/11 06:08:10;;;;;;;5.70;1.67;;;24.50;99.90;;;;;;5074151;28;20228;-76
2022/11/11 06:10:38;;;;;;;2.97;1.33;;;24.60;99.90;;;;;;5074468;28;20172;-73
2022/11/11 06:13:08;;;;;;;6.00;1.50;;;24.40;99.90;;;;;;5073729;28;20213;-77
2022/11/11 06:15:40;;;;;;;3.93;1.57;;;24.20;99.90;;;;;;5074233;28;20202;-76
2022/11/11 06:18:07;;;;;;;5.33;1.40;;;24.00;99.90;;;;;;5068797;28;20185;-76
2022/11/11 06:20:35;;;;;;;3.20;1.77;;;23.90;99.90;;;;;;5074119;28;20244;-75
2022/11/11 06:23:04;;;;;;;2.70;1.40;;;23.90;99.90;;;;;;5089598;28;20550;-75
2022/11/11 06:28:19;;;;;;;5.93;1.20;;;23.70;99.90;;;;;;5074293;28;20182;-73
2022/11/11 06:30:46;;;;;;;5.57;1.40;;;23.70;99.90;;;;;;5073657;28;20183;-74
2022/11/11 06:33:15;;;;;;;4.23;1.40;;;23.60;99.90;;;;;;5073853;28;20809;-75
2022/11/11 06:35:44;;;;;;;7.50;1.13;;;23.50;99.90;;;;;;5073672;28;20192;-76
2022/11/11 06:38:11;;;;;;;2.57;1.30;;;23.50;99.90;;;;;;5057364;28;20207;-75
2022/11/11 06:40:39;;;;;;;2.80;1.47;;;23.50;99.90;;;;;;5071688;28;20945;-75
2022/11/11 06:43:06;;;;;;;3.70;2.20;;;23.60;99.90;;;;;;5073651;28;20176;-76
2022/11/11 06:45:36;;;;;;;2.53;1.60;;;23.70;99.90;;;;;;5073782;28;20185;-75
2022/11/11 06:48:05;;;;;;;3.67;1.40;;;23.80;99.90;;;;;;5073566;28;20258;-72
2022/11/11 06:50:33;;;;;;;4.17;1.53;;;23.80;99.90;;;;;;5072962;28;20554;-75
2022/11/11 06:53:09;;;;;;;3.27;0.87;;;23.70;99.90;;;;;;5072949;28;20214;-71
2022/11/11 06:55:37;;;;;;;1.77;1.20;;;23.50;99.90;;;;;;5088931;28;20185;-76
2022/11/11 06:58:15;;;;;;;3.07;1.17;;;23.40;99.90;;;;;;5073237;28;20183;-77
2022/11/11 07:00:43;;;;;;;4.10;1.50;;;23.40;99.90;;;;;;5073002;28;20180;-76
2022/11/11 07:03:13;;;;;;;4.23;1.70;;;23.20;99.90;;;;;;5073041;28;20725;-72
2022/11/11 07:05:42;;;;;;;4.07;1.50;;;23.30;99.90;;;;;;5073271;28;20180;-75
2022/11/11 07:08:12;;;;;;;5.33;1.50;;;23.30;99.90;;;;;;5088803;28;20183;-76
2022/11/11 07:10:43;;;;;;;2.30;1.23;;;23.50;99.90;;;;;;5068030;28;20223;-79
2022/11/11 07:13:10;;;;;;;4.20;1.27;;;23.60;99.90;;;;;;5053027;28;20258;-78
2022/11/11 07:15:38;;;;;;;3.47;1.50;;;23.90;99.90;;;;;;5053276;28;20514;-74
2022/11/11 07:18:05;;;;;;;3.90;1.37;;;24.20;99.90;;;;;;5053105;28;20182;-79
2022/11/11 07:20:33;;;;;;;1.10;0.87;;;24.30;99.90;;;;;;5062361;28;20176;-75
2022/11/11 07:23:00;;;;;;;1.50;0.70;;;24.10;99.90;;;;;;5073635;28;20206;-71
2022/11/11 07:25:28;;;;;;;5.10;1.40;;;23.80;99.90;;;;;;5073591;28;20232;-76
2022/11/11 07:27:55;;;;;;;2.13;1.40;;;23.70;99.90;;;;;;5073988;28;20179;-74
2022/11/11 07:30:23;;;;;;;1.63;1.17;;;23.80;99.90;;;;;;5073486;28;20183;-75
2022/11/11 07:32:52;;;;;;;4.80;1.70;;;23.60;99.90;;;;;;5074584;28;20203;-75
2022/11/11 07:35:21;;;;;;;3.47;1.40;;;23.60;99.90;;;;;;5074901;28;20192;-75
2022/11/11 07:37:49;;;;;;;5.53;1.23;;;23.50;99.90;;;;;;5075464;28;20207;-76
2022/11/11 07:40:18;;;;;;;5.30;1.70;;;23.40;99.90;;;;;;5074379;28;20272;-77
2022/11/11 07:42:46;;;;;;;2.13;1.40;;;23.30;99.90;;;;;;5074009;28;20172;-76
2022/11/11 07:45:14;;;;;;;4.00;1.53;;;23.50;99.90;;;;;;5059679;28;20552;-77
2022/11/11 07:47:44;;;;;;;2.33;1.03;;;23.70;99.90;;;;;;5051147;28;20187;-77
2022/11/11 07:50:12;;;;;;;3.17;1.60;;;23.80;99.90;;;;;;5053913;28;20190;-77
2022/11/11 07:52:40;;;;;;;2.80;1.20;;;23.60;99.90;;;;;;5062197;28;20705;-77
2022/11/11 07:58:29;;;;;;;2.23;1.30;;;23.00;99.90;;;;;;5033456;28;20781;-76
2022/11/11 08:01:00;;;;;;;8.90;1.83;;;22.70;99.90;;;;;;5075802;28;20252;-78
2022/11/11 08:03:27;;;;;;;5.60;1.50;;;22.60;99.90;;;;;;5075256;28;20176;-76
2022/11/11 08:05:56;;;;;;;7.37;2.07;;;22.50;99.90;;;;;;5072000;28;20194;-76
2022/11/11 08:08:25;;;;;;;3.80;2.43;;;22.50;99.90;;;;;;5075145;28;20183;-77
2022/11/11 08:10:56;;;;;;;3.37;1.73;;;22.50;99.90;;;;;;5078456;28;20175;-77
2022/11/11 08:13:42;;;;;;;3.53;2.13;;;22.50;99.90;;;;;;5073183;28;20235;-77
2022/11/11 08:16:10;;;;;;;4.33;2.20;;;22.40;99.90;;;;;;5088773;28;20241;-76
2022/11/11 08:18:38;;;;;;;5.90;2.20;;;22.20;99.90;;;;;;5088474;28;20186;-77
2022/11/11 08:21:06;;;;;;;4.17;1.87;;;22.10;99.90;;;;;;5073274;28;20171;-76
2022/11/11 08:23:34;;;;;;;3.03;1.50;;;22.00;99.90;;;;;;5088469;28;20183;-77
2022/11/11 08:26:07;;;;;;;2.73;1.73;;;21.80;99.90;;;;;;5073174;28;20198;-76
2022/11/11 08:28:35;;;;;;;3.17;1.20;;;21.80;99.90;;;;;;5072485;28;20187;-71
2022/11/11 08:31:02;;;;;;;2.40;1.70;;;21.70;99.90;;;;;;5073087;28;20231;-73
2022/11/11 08:33:30;;;;;;;4.47;1.57;;;21.70;99.90;;;;;;5088579;28;20218;-73
2022/11/11 08:36:01;;;;;;;8.53;2.23;;;21.70;99.90;;;;;;5073197;28;20176;-73
2022/11/11 08:38:29;;;;;;;8.27;2.40;;;21.60;99.90;;;;;;5073013;28;20190;-73
2022/11/11 08:41:00;;;;;;;7.10;2.37;;;21.60;99.90;;;;;;5073096;28;20184;-72
2022/11/11 08:43:31;;;;;;;3.87;2.00;;;21.60;99.90;;;;;;5072857;28;20190;-77
2022/11/11 08:46:03;;;;;;;7.63;2.43;;;21.50;99.90;;;;;;5073201;28;20480;-74
2022/11/11 08:48:33;;;;;;;4.20;1.93;;;21.40;99.90;;;;;;5073089;28;20619;-74
2022/11/11 08:51:01;;;;;;;7.33;2.30;;;21.40;99.90;;;;;;5073214;28;20183;-76
2022/11/11 08:53:28;;;;;;;3.97;2.07;;;21.30;99.90;;;;;;5072993;28;20261;-76
2022/11/11 08:55:56;;;;;;;6.90;1.93;;;21.30;99.90;;;;;;5088956;28;20186;-75
2022/11/11 08:58:23;;;;;;;4.97;1.80;;;21.30;99.90;;;;;;5072975;28;20183;-76
2022/11/11 09:00:51;;;;;;;4.47;1.83;;;21.30;99.90;;;;;;5072964;28;20180;-76
2022/11/11 09:03:18;;;;;;;3.23;1.77;;;21.20;99.90;;;;;;5073192;28;20183;-77
2022/11/11 09:05:46;;;;;;;3.27;1.40;;;21.10;99.90;;;;;;5073016;28;20187;-77
2022/11/11 09:08:14;;;;;;;6.67;2.97;;;21.10;99.90;;;;;;5072909;28;20171;-77
2022/11/11 09:10:41;;;;;;;4.17;2.30;;;21.20;99.90;;;;;;5072990;28;20184;-77
2022/11/11 09:13:09;;;;;;;6.73;3.00;;;21.30;99.90;;;;;;5073117;28;20537;-75
2022/11/11 09:15:36;;;;;;;4.77;2.63;;;21.20;99.90;;;;;;5075390;28;20191;-73
2022/11/11 09:18:04;;;;;;;5.40;2.33;;;21.10;99.90;;;;;;5076011;28;20649;-75
2022/11/11 09:20:31;;;;;;;5.00;1.87;;;21.00;99.90;;;;;;5075840;28;20649;-74
2022/11/11 09:22:59;;;;;;;4.67;2.10;;;21.00;99.90;;;;;;5076381;28;20218;-75
2022/11/11 09:25:26;;;;;;;4.17;1.90;;;20.90;99.90;;;;;;5076477;28;20262;-76
2022/11/11 09:28:00;;;;;;;4.37;1.87;;;20.80;99.90;;;;;;5092188;28;20549;-76
2022/11/11 09:30:29;;;;;;;5.17;1.50;;;20.80;99.90;;;;;;5076204;28;20203;-76
2022/11/11 09:33:02;;;;;;;5.00;1.70;;;20.70;99.90;;;;;;5076095;28;20575;-76
2022/11/11 09:35:30;;;;;;;9.07;1.70;;;20.70;99.90;;;;;;5073618;28;20180;-76
2022/11/11 09:38:01;;;;;;;7.30;1.70;;;20.60;99.90;;;;;;5056218;28;20168;-73
2022/11/11 09:40:49;;;;;;;6.37;2.20;;;20.50;99.90;;;;;;5063730;28;20661;-76
2022/11/11 09:43:26;;;;;;;4.30;1.87;;;20.50;99.90;;;;;;5074636;28;20638;-76
2022/11/11 09:46:41;;;;;;;3.10;1.50;;;20.40;99.90;;;;;;5076061;28;20528;-75
2022/11/11 09:49:35;;;;;;;4.77;2.20;;;20.30;99.90;;;;;;5056556;28;20730;-76
2022/11/11 09:52:19;;;;;;;5.83;2.30;;;20.20;99.90;;;;;;5036436;28;20190;-78
2022/11/11 09:55:02;;;;;;;3.87;2.33;;;20.30;99.90;;;;;;5035968;28;20218;-76
2022/11/11 09:57:38;;;;;;;7.60;2.70;;;20.20;99.90;;;;;;5058044;28;20179;-76
2022/11/11 10:00:25;;;;;;;3.37;2.13;;;20.30;99.90;;;;;;5075193;28;20272;-76
2022/11/11 10:03:05;;;;;;;3.40;1.70;;;20.30;99.90;;;;;;5074359;28;20235;-77
2022/11/11 10:05:45;;;;;;;4.57;1.50;;;20.20;99.90;;;;;;5075916;28;20548;-76
2022/11/11 10:08:22;;;;;;;4.07;1.70;;;20.20;99.90;;;;;;5075340;28;20187;-76
2022/11/11 10:10:52;;;;;;;2.67;1.43;;;20.30;99.90;;;;;;5075416;28;20189;-76
2022/11/11 10:13:26;;;;;;;6.43;1.80;;;20.10;99.90;;;;;;5075367;28;20209;-76
2022/11/11 10:16:14;;;;;;;7.07;2.00;;;20.00;99.90;;;;;;5075396;28;20625;-75
2022/11/11 10:19:03;;;;;;;4.60;1.80;;;19.90;99.90;;;;;;5075868;28;20202;-75
2022/11/11 10:21:51;;;;;;;4.67;1.77;;;19.80;99.90;;;;;;5075197;28;20191;-76
2022/11/11 10:24:44;;;;;;;5.43;1.77;;;19.70;99.90;;;;;;5075940;28;20181;-75
2022/11/11 10:27:20;;;;;;;5.00;2.10;;;19.60;99.90;;;;;;5074714;28;20315;-76
2022/11/11 10:29:49;;;;;;;3.83;1.63;;;19.60;99.90;;;;;;5075217;28;20170;-76
2022/11/11 10:32:19;;;;;;;4.67;1.70;;;19.50;99.90;;;;;;5075475;28;20185;-75
2022/11/11 10:34:47;;;;;;;7.87;1.97;;;19.60;99.90;;;;;;5074728;28;20218;-74
2022/11/11 10:37:22;;;;;;;5.03;2.07;;;19.50;99.90;;;;;;5075367;28;20532;-75
2022/11/11 10:40:13;;;;;;;2.67;1.73;;;19.50;99.90;;;;;;5074808;28;20658;-76
2022/11/11 10:42:40;;;;;;;4.67;2.20;;;19.40;99.90;;;;;;5075493;28;20594;-76
2022/11/11 10:45:26;;;;;;;7.30;2.37;;;19.50;99.90;;;;;;5075128;28;20168;-77
2022/11/11 10:47:58;;;;;;;4.60;2.43;;;19.50;99.90;;;;;;5075204;28;20251;-75
2022/11/11 10:50:46;;;;;;;4.97;2.20;;;19.60;99.90;;;;;;5034952;28;20174;-74
2022/11/11 10:53:23;;;;;;;2.43;1.63;;;19.70;99.90;;;;;;5034922;28;20233;-75
2022/11/11 10:56:10;;;;;;;3.77;1.80;;;19.70;99.90;;;;;;5035047;28;20191;-75
2022/11/11 10:58:49;;;;;;;4.70;2.20;;;19.60;99.90;;;;;;5041163;28;20184;-77
2022/11/11 11:01:29;;;;;;;5.43;1.90;;;19.50;99.90;;;;;;5074397;28;20250;-74
2022/11/11 11:04:04;;;;;;;4.53;1.67;;;19.50;99.90;;;;;;5073914;28;20176;-77
2022/11/11 11:06:36;;;;;;;2.83;1.60;;;19.50;99.90;;;;;;5074811;28;20204;-74
2022/11/11 11:09:31;;;;;;;3.37;1.43;;;19.50;99.90;;;;;;5074316;28;20176;-76
2022/11/11 11:12:14;;;;;;;5.87;1.90;;;19.50;99.90;;;;;;5075149;28;20699;-74
2022/11/11 11:14:48;;;;;;;3.80;1.70;;;19.50;99.90;;;;;;5074192;28;20220;-73
2022/11/11 11:17:24;;;;;;;12.37;1.80;;;19.40;99.90;;;;;;5074326;28;20199;-72
2022/11/11 11:20:12;;;;;;;3.60;1.50;;;19.40;99.90;;;;;;5073815;28;20191;-77
2022/11/11 11:23:00;;;;;;;3.93;2.00;;;19.50;99.90;;;;;;5089902;28;20182;-76
2022/11/11 11:25:29;;;;;;;3.30;1.57;;;19.50;99.90;;;;;;5074251;28;20625;-73
2022/11/11 11:28:12;;;;;;;2.57;1.33;;;19.50;99.90;;;;;;5074115;28;20543;-76
2022/11/11 11:30:40;;;;;;;3.17;1.80;;;19.50;99.90;;;;;;5074117;28;20192;-74
2022/11/11 11:33:09;;;;;;;2.07;1.70;;;19.40;99.90;;;;;;5074087;28;20255;-69
2022/11/11 11:35:40;;;;;;;2.97;1.67;;;19.40;99.90;;;;;;5074100;28;20604;-77
2022/11/11 11:38:12;;;;;;;2.60;1.60;;;19.40;99.90;;;;;;5073836;28;20183;-73
2022/11/11 11:40:46;;;;;;;3.07;1.37;;;19.30;99.90;;;;;;5073765;28;20650;-75
2022/11/11 11:43:34;;;;;;;5.73;1.60;;;19.30;99.90;;;;;;5073859;28;20172;-75
2022/11/11 11:46:16;;;;;;;2.20;1.50;;;19.20;99.90;;;;;;5074011;28;20190;-76
2022/11/11 11:48:59;;;;;;;4.20;1.67;;;19.10;99.90;;;;;;5074434;28;20171;-78
2022/11/11 11:51:55;;;;;;;2.00;1.80;;;19.00;99.90;;;;;;5073449;28;20278;-76
2022/11/11 11:54:59;;;;;;;6.27;1.73;;;19.00;99.90;;;;;;5073826;28;20578;-74
2022/11/11 11:57:42;;;;;;;1.83;1.50;;;19.00;99.90;;;;;;5089138;28;20192;-75
2022/11/11 12:00:18;;;;;;;4.90;1.50;;;19.00;99.90;;;;;;5073508;28;20596;-76
2022/11/11 12:03:27;;;;;;;1.80;1.60;;;19.10;99.90;;;;;;5073532;28;20280;-77
2022/11/11 12:06:23;;;;;;;2.37;1.60;;;19.00;99.90;;;;;;5073800;28;20282;-75
2022/11/11 12:09:15;;;;;;;6.97;1.83;;;19.00;99.90;;;;;;5060324;28;20371;-75
2022/11/11 12:11:50;;;;;;;3.60;1.50;;;19.00;99.90;;;;;;5033464;28;20216;-73
2022/11/11 12:14:52;;;;;;;4.90;1.80;;;19.00;99.90;;;;;;5048885;28;20244;-76
2022/11/11 12:17:41;;;;;;;2.93;1.50;;;19.00;99.90;;;;;;5034208;28;20211;-75
2022/11/11 12:20:31;;;;;;;3.07;1.60;;;19.00;99.90;;;;;;5066467;28;20547;-75
2022/11/11 12:23:01;;;;;;;5.63;1.77;;;19.00;99.90;;;;;;5072449;28;20265;-77
2022/11/11 12:25:34;;;;;;;5.23;1.40;;;18.90;99.90;;;;;;5075748;28;20651;-78
2022/11/11 12:28:30;;;;;;;6.10;1.60;;;18.90;99.90;;;;;;5075704;28;20179;-78
2022/11/11 12:31:13;;;;;;;1.60;1.10;;;18.80;99.90;;;;;;5073835;28;20190;-78
2022/11/11 12:34:08;;;;;;;4.63;1.67;;;18.80;99.90;;;;;;5073490;28;20203;-78
2022/11/11 12:36:53;;;;;;;3.70;1.33;;;18.70;99.90;;;;;;5063668;28;20661;-78
2022/11/11 12:40:01;;;;;;;5.50;1.30;;;18.60;99.90;;;;;;5072900;28;20187;-76
2022/11/11 12:42:48;;;;;;;2.23;1.40;;;18.60;99.90;;;;;;5053541;28;20185;-76
2022/11/11 12:45:22;;;;;;;3.83;1.70;;;18.60;99.90;;;;;;5073457;28;20623;-78
2022/11/11 12:48:11;;;;;;;2.20;1.40;;;18.60;99.90;;;;;;5073011;28;20183;-77
2022/11/11 12:50:51;;;;;;;3.83;1.30;;;18.50;99.90;;;;;;5090770;28;20529;-77
2022/11/11 12:53:41;;;;;;;3.77;1.73;;;18.40;99.90;;;;;;5076208;28;20214;-76
2022/11/11 12:56:18;;;;;;;1.90;1.70;;;18.40;99.90;;;;;;5074357;28;20222;-78
2022/11/11 12:59:18;;;;;;;3.47;1.60;;;18.40;99.90;;;;;;5077630;28;20183;-77
2022/11/11 13:02:16;;;;;;;6.30;1.57;;;18.50;99.90;;;;;;5067852;28;20221;-76
2022/11/11 13:05:02;;;;;;;1.83;1.10;;;18.50;99.90;;;;;;5077031;28;20167;-77
2022/11/11 13:08:01;;;;;;;5.33;1.47;;;18.50;99.90;;;;;;5092623;28;20180;-76
2022/11/11 13:11:03;;;;;;;3.03;1.70;;;18.40;99.90;;;;;;5076201;28;20203;-76
2022/11/11 13:13:39;;;;;;;3.60;1.53;;;18.40;99.90;;;;;;5076962;28;20198;-77
2022/11/11 13:16:09;;;;;;;6.57;1.80;;;18.40;99.90;;;;;;5076814;28;20275;-74
2022/11/11 13:19:00;;;;;;;4.70;1.60;;;18.30;99.90;;;;;;5075982;28;20668;-75
2022/11/11 13:21:41;;;;;;;5.03;1.90;;;18.30;99.90;;;;;;5076534;28;20641;-77
2022/11/11 13:24:14;;;;;;;3.87;1.83;;;18.30;99.90;;;;;;5076649;28;20204;-74
2022/11/11 13:27:01;;;;;;;3.63;1.30;;;18.20;99.90;;;;;;5076539;28;20173;-74
2022/11/11 13:29:38;;;;;;;1.40;1.30;;;18.20;99.90;;;;;;5074710;28;20270;-74
2022/11/11 13:32:10;;;;;;;2.87;1.50;;;18.20;99.90;;;;;;5076387;28;20168;-71
2022/11/11 13:34:39;;;;;;;4.70;1.57;;;18.10;99.90;;;;;;5076452;28;20242;-71
2022/11/11 13:37:18;;;;;;;7.70;1.83;;;18.10;99.90;;;;;;5075875;28;20183;-75
2022/11/11 13:39:47;;;;;;;3.47;1.60;;;18.10;99.90;;;;;;5075755;28;20197;-74
2022/11/11 13:42:24;;;;;;;1.67;1.40;;;18.10;99.90;;;;;;5076253;28;20180;-76
2022/11/11 13:44:56;;;;;;;2.53;1.40;;;18.10;99.90;;;;;;5076858;28;20178;-73
2022/11/11 13:47:34;;;;;;;4.20;1.50;;;18.10;99.90;;;;;;5076488;28;20278;-76
2022/11/11 13:50:28;;;;;;;2.23;1.20;;;18.00;99.90;;;;;;5075641;28;20179;-74
2022/11/11 13:53:06;;;;;;;4.27;1.53;;;18.00;99.90;;;;;;5073016;28;20246;-76
2022/11/11 13:55:37;;;;;;;3.37;1.60;;;18.00;99.90;;;;;;5075371;28;20215;-74
2022/11/11 13:58:06;;;;;;;5.83;1.83;;;18.00;99.90;;;;;;5075783;28;20180;-73
2022/11/11 14:00:38;;;;;;;5.80;1.67;;;17.90;99.90;;;;;;5075183;28;20188;-76
2022/11/11 14:03:17;;;;;;;3.30;2.00;;;17.90;99.90;;;;;;5074823;28;20571;-76
2022/11/11 14:05:46;;;;;;;2.90;1.70;;;17.90;99.90;;;;;;5076144;28;20186;-73
2022/11/11 14:08:45;;;;;;;3.60;2.00;;;17.90;99.90;;;;;;5075600;28;21022;-76
2022/11/11 14:11:25;;;;;;;3.20;1.77;;;17.90;99.90;;;;;;5052583;28;20200;-76
2022/11/11 14:13:57;;;;;;;2.90;1.70;;;17.80;99.90;;;;;;5056049;28;20197;-76
2022/11/11 14:16:53;;;;;;;2.03;1.83;;;17.70;99.90;;;;;;5056240;28;20564;-73
2022/11/11 14:19:21;;;;;;;3.03;1.80;;;17.70;99.90;;;;;;5064186;28;20266;-75
2022/11/11 14:21:54;;;;;;;4.77;1.97;;;17.60;99.90;;;;;;5075408;28;20684;-75
2022/11/11 14:24:43;;;;;;;5.13;1.67;;;17.60;99.90;;;;;;5076131;28;20660;-75
2022/11/11 14:27:11;;;;;;;2.97;1.37;;;17.50;99.90;;;;;;5074948;28;20219;-75
2022/11/11 14:29:54;;;;;;;5.37;1.87;;;17.50;99.90;;;;;;5090639;28;20176;-77
2022/11/11 14:32:54;;;;;;;2.03;1.70;;;17.50;99.90;;;;;;5075105;28;20381;-77
2022/11/11 14:35:53;;;;;;;1.67;1.50;;;17.40;99.90;;;;;;5075434;28;20225;-76
2022/11/11 14:38:27;;;;;;;3.33;1.90;;;17.30;99.90;;;;;;5034922;28;20526;-75
2022/11/11 14:40:54;;;;;;;5.63;1.90;;;17.20;99.90;;;;;;5074255;28;20188;-77
2022/11/11 14:43:40;;;;;;;4.70;1.70;;;17.20;99.90;;;;;;5075050;28;20656;-76
2022/11/11 14:46:10;;;;;;;4.17;2.00;;;17.10;99.90;;;;;;5075018;28;20586;-76